sensor_id;sensor_type;location;lat;lon;timestamp;temperature;humidity
48454;DHT22;34261;55.678;12.464;2022-07-05T00:01:08;15.90;99.90
48454;DHT22;34261;55.678;12.464;2022-07-05T00:03:34;15.90;99.90
48454;DHT22;34261;55.678;12.464;2022-07-05T00:05:59;15.80;99.90
48454;DHT22;34261;55.678;12.464;2022-07-05T00:08:25;15.70;99.90
48454;DHT22;34261;55.678;12.464;2022-07-05T00:10:51;15.80;99.90
48454;DHT22;34261;55.678;12.464;2022-07-05T00:13:17;15.80;99.90
48454;DHT22;34261;55.678;12.464;2022-07-05T00:15:42;15.70;99.90
48454;DHT22;34261;55.678;12.464;2022-07-05T00:18:08;15.60;99.90
48454;DHT22;34261;55.678;12.464;2022-07-05T00:20:34;15.60;99.90
48454;DHT22;34261;55.678;12.464;2022-07-05T00:23:00;15.60;99.90
48454;DHT22;34261;55.678;12.464;2022-07-05T00:25:25;15.60;99.90
48454;DHT22;34261;55.678;12.464;2022-07-05T00:27:51;15.50;99.90
48454;DHT22;34261;55.678;12.464;2022-07-05T00:30:19;15.50;99.90
48454;DHT22;34261;55.678;12.464;2022-07-05T00:32:45;15.50;99.90
48454;DHT22;34261;55.678;12.464;2022-07-05T00:35:11;15.50;99.90
48454;DHT22;34261;55.678;12.464;2022-07-05T00:37:36;15.50;99.90
48454;DHT22;34261;55.678;12.464;2022-07-05T00:40:03;15.40;99.90
48454;DHT22;34261;55.678;12.464;2022-07-05T00:42:29;15.40;99.90
48454;DHT22;34261;55.678;12.464;2022-07-05T00:44:56;15.40;99.90
48454;DHT22;34261;55.678;12.464;2022-07-05T00:47:22;15.30;99.90
48454;DHT22;34261;55.678;12.464;2022-07-05T00:49:48;15.40;99.90
48454;DHT22;34261;55.678;12.464;2022-07-05T00:52:15;15.30;99.90
48454;DHT22;34261;55.678;12.464;2022-07-05T00:54:41;15.20;99.90
48454;DHT22;34261;55.678;12.464;2022-07-05T00:57:07;15.30;99.90
48454;DHT22;34261;55.678;12.464;2022-07-05T00:59:33;15.30;99.90
48454;DHT22;34261;55.678;12.464;2022-07-05T01:01:59;15.20;99.90
48454;DHT22;34261;55.678;12.464;2022-07-05T01:04:24;15.20;99.90
48454;DHT22;34261;55.678;12.464;2022-07-05T01:06:51;15.30;99.90
48454;DHT22;34261;55.678;12.464;2022-07-05T01:09:18;15.20;99.90
48454;DHT22;34261;55.678;12.464;2022-07-05T01:11:47;15.20;99.90
48454;DHT22;34261;55.678;12.464;2022-07-05T01:14:16;15.20;99.90
48454;DHT22;34261;55.678;12.464;2022-07-05T01:16:42;15.20;99.90
48454;DHT22;34261;55.678;12.464;2022-07-05T01:19:09;15.10;99.90
48454;DHT22;34261;55.678;12.464;2022-07-05T01:21:47;15.10;99.90
48454;DHT22;34261;55.678;12.464;2022-07-05T01:24:15;15.10;99.90
48454;DHT22;34261;55.678;12.464;2022-07-05T01:26:42;15.10;99.90
48454;DHT22;34261;55.678;12.464;2022-07-05T01:29:08;15.20;99.90
48454;DHT22;34261;55.678;12.464;2022-07-05T01:31:39;15.10;99.90
48454;DHT22;34261;55.678;12.464;2022-07-05T01:34:06;15.10;99.90
48454;DHT22;34261;55.678;12.464;2022-07-05T01:36:33;15.10;99.90
48454;DHT22;34261;55.678;12.464;2022-07-05T01:39:00;15.20;99.90
48454;DHT22;34261;55.678;12.464;2022-07-05T01:41:26;15.10;99.90
48454;DHT22;34261;55.678;12.464;2022-07-05T01:43:51;15.20;99.90
48454;DHT22;34261;55.678;12.464;2022-07-05T01:46:22;15.20;99.90
48454;DHT22;34261;55.678;12.464;2022-07-05T01:48:51;15.20;99.90
48454;DHT22;34261;55.678;12.464;2022-07-05T01:51:22;15.20;99.90
48454;DHT22;34261;55.678;12.464;2022-07-05T01:53:52;15.10;99.90
48454;DHT22;34261;55.678;12.464;2022-07-05T01:56:17;15.20;99.90
48454;DHT22;34261;55.678;12.464;2022-07-05T01:58:44;15.10;99.90
48454;DHT22;34261;55.678;12.464;2022-07-05T02:01:11;15.10;99.90
48454;DHT22;34261;55.678;12.464;2022-07-05T02:03:37;15.10;99.90
48454;DHT22;34261;55.678;12.464;2022-07-05T02:06:02;15.10;99.90
48454;DHT22;34261;55.678;12.464;2022-07-05T02:08:29;15.20;99.90
48454;DHT22;34261;55.678;12.464;2022-07-05T02:10:55;15.20;99.90
48454;DHT22;34261;55.678;12.464;2022-07-05T02:13:21;15.20;99.90
48454;DHT22;34261;55.678;12.464;2022-07-05T02:15:47;15.20;99.90
48454;DHT22;34261;55.678;12.464;2022-07-05T02:18:13;15.20;99.90
48454;DHT22;34261;55.678;12.464;2022-07-05T02:20:40;15.20;99.90
48454;DHT22;34261;55.678;12.464;2022-07-05T02:23:07;15.30;99.90
48454;DHT22;34261;55.678;12.464;2022-07-05T02:25:33;15.30;99.90
48454;DHT22;34261;55.678;12.464;2022-07-05T02:27:59;15.30;99.90
48454;DHT22;34261;55.678;12.464;2022-07-05T02:30:25;15.30;99.90
48454;DHT22;34261;55.678;12.464;2022-07-05T02:32:50;15.30;99.90
48454;DHT22;34261;55.678;12.464;2022-07-05T02:35:16;15.30;99.90
48454;DHT22;34261;55.678;12.464;2022-07-05T02:37:42;15.30;99.90
48454;DHT22;34261;55.678;12.464;2022-07-05T02:40:09;15.30;99.90
48454;DHT22;34261;55.678;12.464;2022-07-05T02:42:36;15.30;99.90
48454;DHT22;34261;55.678;12.464;2022-07-05T02:45:02;15.30;99.90
48454;DHT22;34261;55.678;12.464;2022-07-05T02:47:31;15.30;99.90
48454;DHT22;34261;55.678;12.464;2022-07-05T02:50:07;15.30;99.90
48454;DHT22;34261;55.678;12.464;2022-07-05T02:52:34;15.40;99.90
48454;DHT22;34261;55.678;12.464;2022-07-05T02:55:00;15.40;99.90
48454;DHT22;34261;55.678;12.464;2022-07-05T02:57:27;15.40;99.90
48454;DHT22;34261;55.678;12.464;2022-07-05T02:59:53;15.40;99.90
48454;DHT22;34261;55.678;12.464;2022-07-05T03:02:23;15.30;99.90
48454;DHT22;34261;55.678;12.464;2022-07-05T03:04:49;15.40;99.90
48454;DHT22;34261;55.678;12.464;2022-07-05T03:07:15;15.40;99.90
48454;DHT22;34261;55.678;12.464;2022-07-05T03:09:40;15.40;99.90
48454;DHT22;34261;55.678;12.464;2022-07-05T03:12:06;15.40;99.90
48454;DHT22;34261;55.678;12.464;2022-07-05T03:14:32;15.40;99.90
48454;DHT22;34261;55.678;12.464;2022-07-05T03:16:58;15.50;99.90
48454;DHT22;34261;55.678;12.464;2022-07-05T03:19:23;15.60;99.90
48454;DHT22;34261;55.678;12.464;2022-07-05T03:21:49;15.50;99.90
48454;DHT22;34261;55.678;12.464;2022-07-05T03:24:14;15.50;99.90
48454;DHT22;34261;55.678;12.464;2022-07-05T03:26:40;15.60;99.90
48454;DHT22;34261;55.678;12.464;2022-07-05T03:29:06;15.50;99.90
48454;DHT22;34261;55.678;12.464;2022-07-05T03:31:32;15.50;99.90
48454;DHT22;34261;55.678;12.464;2022-07-05T03:33:57;15.60;99.90
48454;DHT22;34261;55.678;12.464;2022-07-05T03:36:23;15.60;99.90
48454;DHT22;34261;55.678;12.464;2022-07-05T03:38:48;15.60;99.90
48454;DHT22;34261;55.678;12.464;2022-07-05T03:41:14;15.70;99.90
48454;DHT22;34261;55.678;12.464;2022-07-05T03:43:40;15.70;99.90
48454;DHT22;34261;55.678;12.464;2022-07-05T03:46:06;15.70;99.90
48454;DHT22;34261;55.678;12.464;2022-07-05T03:48:33;15.80;99.90
48454;DHT22;34261;55.678;12.464;2022-07-05T03:51:00;15.80;99.90
48454;DHT22;34261;55.678;12.464;2022-07-05T03:53:25;15.70;99.90
48454;DHT22;34261;55.678;12.464;2022-07-05T03:55:51;15.80;99.90
48454;DHT22;34261;55.678;12.464;2022-07-05T03:58:17;15.80;99.90
48454;DHT22;34261;55.678;12.464;2022-07-05T04:00:43;15.80;99.90
48454;DHT22;34261;55.678;12.464;2022-07-05T04:03:08;15.90;99.90
48454;DHT22;34261;55.678;12.464;2022-07-05T04:05:34;15.90;99.90
48454;DHT22;34261;55.678;12.464;2022-07-05T04:07:59;16.00;99.90
48454;DHT22;34261;55.678;12.464;2022-07-05T04:10:25;16.00;99.90
48454;DHT22;34261;55.678;12.464;2022-07-05T04:12:51;16.00;99.90
48454;DHT22;34261;55.678;12.464;2022-07-05T04:15:16;15.90;99.90
48454;DHT22;34261;55.678;12.464;2022-07-05T04:17:52;15.90;99.90
48454;DHT22;34261;55.678;12.464;2022-07-05T04:20:18;15.90;99.90
48454;DHT22;34261;55.678;12.464;2022-07-05T04:22:46;16.00;99.90
48454;DHT22;34261;55.678;12.464;2022-07-05T04:25:11;16.10;99.90
48454;DHT22;34261;55.678;12.464;2022-07-05T04:27:44;16.10;99.90
48454;DHT22;34261;55.678;12.464;2022-07-05T04:30:11;16.10;99.90
48454;DHT22;34261;55.678;12.464;2022-07-05T04:32:36;16.10;99.90
48454;DHT22;34261;55.678;12.464;2022-07-05T04:35:02;16.20;99.90
48454;DHT22;34261;55.678;12.464;2022-07-05T04:37:28;16.10;99.90
48454;DHT22;34261;55.678;12.464;2022-07-05T04:39:53;16.10;99.90
48454;DHT22;34261;55.678;12.464;2022-07-05T04:42:19;16.20;99.90
48454;DHT22;34261;55.678;12.464;2022-07-05T04:44:45;16.10;99.90
48454;DHT22;34261;55.678;12.464;2022-07-05T04:47:10;16.10;99.90
48454;DHT22;34261;55.678;12.464;2022-07-05T04:49:36;16.00;99.90
48454;DHT22;34261;55.678;12.464;2022-07-05T04:52:02;16.00;99.90
48454;DHT22;34261;55.678;12.464;2022-07-05T04:54:28;16.10;99.90
48454;DHT22;34261;55.678;12.464;2022-07-05T04:56:53;16.20;99.90
48454;DHT22;34261;55.678;12.464;2022-07-05T04:59:19;16.30;99.90
48454;DHT22;34261;55.678;12.464;2022-07-05T05:01:45;16.40;99.90
48454;DHT22;34261;55.678;12.464;2022-07-05T05:04:10;16.50;99.90
48454;DHT22;34261;55.678;12.464;2022-07-05T05:06:36;16.50;99.90
48454;DHT22;34261;55.678;12.464;2022-07-05T05:09:02;16.60;99.90
48454;DHT22;34261;55.678;12.464;2022-07-05T05:11:28;16.70;99.90
48454;DHT22;34261;55.678;12.464;2022-07-05T05:13:54;16.80;99.90
48454;DHT22;34261;55.678;12.464;2022-07-05T05:16:19;16.80;99.90
48454;DHT22;34261;55.678;12.464;2022-07-05T05:18:48;16.80;99.90
48454;DHT22;34261;55.678;12.464;2022-07-05T05:21:13;16.80;99.90
48454;DHT22;34261;55.678;12.464;2022-07-05T05:23:39;17.00;99.90
48454;DHT22;34261;55.678;12.464;2022-07-05T05:26:04;17.10;99.90
48454;DHT22;34261;55.678;12.464;2022-07-05T05:28:30;17.10;99.90
48454;DHT22;34261;55.678;12.464;2022-07-05T05:30:57;17.10;99.90
48454;DHT22;34261;55.678;12.464;2022-07-05T05:33:24;17.20;99.90
48454;DHT22;34261;55.678;12.464;2022-07-05T05:35:50;17.30;99.90
48454;DHT22;34261;55.678;12.464;2022-07-05T05:38:16;17.40;99.90
48454;DHT22;34261;55.678;12.464;2022-07-05T05:40:41;17.50;99.90
48454;DHT22;34261;55.678;12.464;2022-07-05T05:43:10;17.50;99.90
48454;DHT22;34261;55.678;12.464;2022-07-05T05:45:35;17.60;99.90
48454;DHT22;34261;55.678;12.464;2022-07-05T05:48:02;17.70;99.90
48454;DHT22;34261;55.678;12.464;2022-07-05T05:50:38;17.80;99.90
48454;DHT22;34261;55.678;12.464;2022-07-05T05:53:07;17.90;99.90
48454;DHT22;34261;55.678;12.464;2022-07-05T05:55:33;18.00;99.90
48454;DHT22;34261;55.678;12.464;2022-07-05T05:58:17;18.20;99.90
48454;DHT22;34261;55.678;12.464;2022-07-05T06:00:43;18.40;99.90
48454;DHT22;34261;55.678;12.464;2022-07-05T06:03:09;18.40;99.90
48454;DHT22;34261;55.678;12.464;2022-07-05T06:05:35;18.50;99.90
48454;DHT22;34261;55.678;12.464;2022-07-05T06:08:01;18.50;99.60
48454;DHT22;34261;55.678;12.464;2022-07-05T06:10:29;18.50;99.00
48454;DHT22;34261;55.678;12.464;2022-07-05T06:12:57;18.40;99.00
48454;DHT22;34261;55.678;12.464;2022-07-05T06:15:22;18.40;98.80
48454;DHT22;34261;55.678;12.464;2022-07-05T06:17:49;18.30;98.40
48454;DHT22;34261;55.678;12.464;2022-07-05T06:20:21;18.20;98.40
48454;DHT22;34261;55.678;12.464;2022-07-05T06:22:47;18.20;98.40
48454;DHT22;34261;55.678;12.464;2022-07-05T06:25:14;18.10;97.80
48454;DHT22;34261;55.678;12.464;2022-07-05T06:27:44;17.90;97.70
48454;DHT22;34261;55.678;12.464;2022-07-05T06:30:15;18.10;98.10
48454;DHT22;34261;55.678;12.464;2022-07-05T06:32:42;18.20;97.90
48454;DHT22;34261;55.678;12.464;2022-07-05T06:35:09;18.40;98.20
48454;DHT22;34261;55.678;12.464;2022-07-05T06:37:58;18.60;98.10
48454;DHT22;34261;55.678;12.464;2022-07-05T06:40:38;18.70;97.30
48454;DHT22;34261;55.678;12.464;2022-07-05T06:43:06;18.80;97.00
48454;DHT22;34261;55.678;12.464;2022-07-05T06:45:32;18.80;97.00
48454;DHT22;34261;55.678;12.464;2022-07-05T06:48:04;18.90;97.00
48454;DHT22;34261;55.678;12.464;2022-07-05T06:50:33;19.10;97.00
48454;DHT22;34261;55.678;12.464;2022-07-05T06:53:01;19.20;96.20
48454;DHT22;34261;55.678;12.464;2022-07-05T06:55:28;19.40;96.80
48454;DHT22;34261;55.678;12.464;2022-07-05T06:58:02;19.50;96.00
48454;DHT22;34261;55.678;12.464;2022-07-05T07:00:29;19.50;96.20
48454;DHT22;34261;55.678;12.464;2022-07-05T07:02:56;19.40;95.20
48454;DHT22;34261;55.678;12.464;2022-07-05T07:05:26;19.60;95.90
48454;DHT22;34261;55.678;12.464;2022-07-05T07:08:14;19.50;96.00
48454;DHT22;34261;55.678;12.464;2022-07-05T07:10:58;19.50;95.70
48454;DHT22;34261;55.678;12.464;2022-07-05T07:13:27;19.60;95.60
48454;DHT22;34261;55.678;12.464;2022-07-05T07:15:56;19.70;95.70
48454;DHT22;34261;55.678;12.464;2022-07-05T07:18:28;19.70;95.80
48454;DHT22;34261;55.678;12.464;2022-07-05T07:20:58;19.60;95.00
48454;DHT22;34261;55.678;12.464;2022-07-05T07:23:26;19.60;95.20
48454;DHT22;34261;55.678;12.464;2022-07-05T07:28:35;20.10;95.20
48454;DHT22;34261;55.678;12.464;2022-07-05T07:31:03;20.30;94.90
48454;DHT22;34261;55.678;12.464;2022-07-05T07:33:33;20.20;94.50
48454;DHT22;34261;55.678;12.464;2022-07-05T07:36:01;20.00;94.40
48454;DHT22;34261;55.678;12.464;2022-07-05T07:38:28;19.80;94.70
48454;DHT22;34261;55.678;12.464;2022-07-05T07:40:57;19.70;94.00
48454;DHT22;34261;55.678;12.464;2022-07-05T07:43:26;19.70;93.20
48454;DHT22;34261;55.678;12.464;2022-07-05T07:45:52;19.70;93.80
48454;DHT22;34261;55.678;12.464;2022-07-05T07:48:20;19.80;93.50
48454;DHT22;34261;55.678;12.464;2022-07-05T07:50:48;19.90;93.50
48454;DHT22;34261;55.678;12.464;2022-07-05T07:53:18;20.00;93.10
48454;DHT22;34261;55.678;12.464;2022-07-05T07:55:45;20.20;93.80
48454;DHT22;34261;55.678;12.464;2022-07-05T07:58:12;20.20;93.90
48454;DHT22;34261;55.678;12.464;2022-07-05T08:00:40;20.30;93.60
48454;DHT22;34261;55.678;12.464;2022-07-05T08:03:08;20.20;93.50
48454;DHT22;34261;55.678;12.464;2022-07-05T08:05:35;20.30;93.80
48454;DHT22;34261;55.678;12.464;2022-07-05T08:08:02;20.20;93.50
48454;DHT22;34261;55.678;12.464;2022-07-05T08:10:30;20.30;94.00
48454;DHT22;34261;55.678;12.464;2022-07-05T08:12:58;20.50;93.40
48454;DHT22;34261;55.678;12.464;2022-07-05T08:15:26;20.70;93.60
48454;DHT22;34261;55.678;12.464;2022-07-05T08:17:55;20.80;92.10
48454;DHT22;34261;55.678;12.464;2022-07-05T08:20:39;20.90;92.10
48454;DHT22;34261;55.678;12.464;2022-07-05T08:23:23;21.00;92.30
48454;DHT22;34261;55.678;12.464;2022-07-05T08:25:49;20.80;91.80
48454;DHT22;34261;55.678;12.464;2022-07-05T08:28:18;20.70;92.60
48454;DHT22;34261;55.678;12.464;2022-07-05T08:30:44;20.50;92.20
48454;DHT22;34261;55.678;12.464;2022-07-05T08:33:11;20.30;92.90
48454;DHT22;34261;55.678;12.464;2022-07-05T08:35:38;20.00;93.50
48454;DHT22;34261;55.678;12.464;2022-07-05T08:38:06;19.60;94.70
48454;DHT22;34261;55.678;12.464;2022-07-05T08:40:33;19.50;95.00
48454;DHT22;34261;55.678;12.464;2022-07-05T08:43:02;19.60;95.40
48454;DHT22;34261;55.678;12.464;2022-07-05T08:45:31;19.80;94.80
48454;DHT22;34261;55.678;12.464;2022-07-05T08:47:59;19.80;94.70
48454;DHT22;34261;55.678;12.464;2022-07-05T08:50:27;19.90;94.80
48454;DHT22;34261;55.678;12.464;2022-07-05T08:52:53;20.20;93.70
48454;DHT22;34261;55.678;12.464;2022-07-05T08:55:23;20.50;93.50
48454;DHT22;34261;55.678;12.464;2022-07-05T08:57:50;20.70;93.20
48454;DHT22;34261;55.678;12.464;2022-07-05T09:00:17;20.70;93.20
48454;DHT22;34261;55.678;12.464;2022-07-05T10:20:33;20.40;97.90
48454;DHT22;34261;55.678;12.464;2022-07-05T10:23:18;20.10;99.40
48454;DHT22;34261;55.678;12.464;2022-07-05T10:26:05;19.80;99.90
48454;DHT22;34261;55.678;12.464;2022-07-05T10:28:34;19.80;99.90
48454;DHT22;34261;55.678;12.464;2022-07-05T10:31:02;19.60;99.90
48454;DHT22;34261;55.678;12.464;2022-07-05T10:33:30;19.60;99.90
48454;DHT22;34261;55.678;12.464;2022-07-05T10:35:58;19.70;99.90
48454;DHT22;34261;55.678;12.464;2022-07-05T10:38:26;19.80;99.90
48454;DHT22;34261;55.678;12.464;2022-07-05T10:40:58;19.70;99.90
48454;DHT22;34261;55.678;12.464;2022-07-05T10:43:27;19.90;99.90
48454;DHT22;34261;55.678;12.464;2022-07-05T10:45:53;20.10;99.90
48454;DHT22;34261;55.678;12.464;2022-07-05T10:48:26;20.30;99.90
48454;DHT22;34261;55.678;12.464;2022-07-05T10:54:00;21.00;99.90
48454;DHT22;34261;55.678;12.464;2022-07-05T10:56:16;21.50;98.30
48454;DHT22;34261;55.678;12.464;2022-07-05T10:59:14;21.90;98.50
48454;DHT22;34261;55.678;12.464;2022-07-05T11:02:17;22.60;99.10
48454;DHT22;34261;55.678;12.464;2022-07-05T11:05:34;22.80;94.80
48454;DHT22;34261;55.678;12.464;2022-07-05T11:08:04;23.30;94.00
48454;DHT22;34261;55.678;12.464;2022-07-05T11:10:42;23.70;93.60
48454;DHT22;34261;55.678;12.464;2022-07-05T11:24:24;23.60;88.80
48454;DHT22;34261;55.678;12.464;2022-07-05T11:27:01;23.80;89.40
48454;DHT22;34261;55.678;12.464;2022-07-05T11:30:21;24.40;89.30
48454;DHT22;34261;55.678;12.464;2022-07-05T11:32:50;25.00;89.10
48454;DHT22;34261;55.678;12.464;2022-07-05T11:35:23;25.10;85.60
48454;DHT22;34261;55.678;12.464;2022-07-05T11:38:14;25.40;85.80
48454;DHT22;34261;55.678;12.464;2022-07-05T11:40:51;25.40;86.40
48454;DHT22;34261;55.678;12.464;2022-07-05T11:43:29;25.50;86.70
48454;DHT22;34261;55.678;12.464;2022-07-05T11:46:21;25.30;86.90
48454;DHT22;34261;55.678;12.464;2022-07-05T11:49:18;25.10;84.80
48454;DHT22;34261;55.678;12.464;2022-07-05T11:52:01;24.80;84.30
48454;DHT22;34261;55.678;12.464;2022-07-05T11:54:48;24.90;85.10
48454;DHT22;34261;55.678;12.464;2022-07-05T11:57:37;24.70;86.30
48454;DHT22;34261;55.678;12.464;2022-07-05T12:01:00;24.80;86.60
48454;DHT22;34261;55.678;12.464;2022-07-05T12:03:28;25.20;84.50
48454;DHT22;34261;55.678;12.464;2022-07-05T12:06:18;25.30;81.60
48454;DHT22;34261;55.678;12.464;2022-07-05T12:09:33;25.70;82.50
48454;DHT22;34261;55.678;12.464;2022-07-05T12:12:24;26.00;83.50
48454;DHT22;34261;55.678;12.464;2022-07-05T12:15:20;26.00;83.80
48454;DHT22;34261;55.678;12.464;2022-07-05T12:17:49;25.40;80.90
48454;DHT22;34261;55.678;12.464;2022-07-05T12:20:35;25.40;82.80
48454;DHT22;34261;55.678;12.464;2022-07-05T12:23:08;25.90;81.20
48454;DHT22;34261;55.678;12.464;2022-07-05T12:25:34;25.90;83.50
48454;DHT22;34261;55.678;12.464;2022-07-05T12:28:08;25.30;82.50
48454;DHT22;34261;55.678;12.464;2022-07-05T12:30:58;25.30;82.30
48454;DHT22;34261;55.678;12.464;2022-07-05T12:33:24;25.50;81.80
48454;DHT22;34261;55.678;12.464;2022-07-05T12:36:05;25.80;80.10
48454;DHT22;34261;55.678;12.464;2022-07-05T12:38:58;26.00;79.90
48454;DHT22;34261;55.678;12.464;2022-07-05T12:41:26;26.30;76.70
48454;DHT22;34261;55.678;12.464;2022-07-05T12:43:54;26.80;77.80
48454;DHT22;34261;55.678;12.464;2022-07-05T12:46:35;26.70;78.10
48454;DHT22;34261;55.678;12.464;2022-07-05T12:49:05;26.80;76.90
48454;DHT22;34261;55.678;12.464;2022-07-05T12:51:37;27.30;77.60
48454;DHT22;34261;55.678;12.464;2022-07-05T12:54:23;26.70;76.10
48454;DHT22;34261;55.678;12.464;2022-07-05T12:57:14;27.00;78.80
48454;DHT22;34261;55.678;12.464;2022-07-05T13:00:05;26.40;76.90
48454;DHT22;34261;55.678;12.464;2022-07-05T13:02:45;25.80;74.30
48454;DHT22;34261;55.678;12.464;2022-07-05T13:05:22;25.60;76.60
48454;DHT22;34261;55.678;12.464;2022-07-05T13:07:57;25.60;76.50
48454;DHT22;34261;55.678;12.464;2022-07-05T13:10:30;25.30;76.50
48454;DHT22;34261;55.678;12.464;2022-07-05T13:13:19;25.10;77.10
48454;DHT22;34261;55.678;12.464;2022-07-05T13:16:14;24.60;75.60
48454;DHT22;34261;55.678;12.464;2022-07-05T13:18:43;24.00;76.40
48454;DHT22;34261;55.678;12.464;2022-07-05T13:21:42;23.80;76.90
48454;DHT22;34261;55.678;12.464;2022-07-05T13:49:21;26.70;76.90
48454;DHT22;34261;55.678;12.464;2022-07-05T13:51:48;27.10;74.50
48454;DHT22;34261;55.678;12.464;2022-07-05T13:54:14;26.30;73.30
48454;DHT22;34261;55.678;12.464;2022-07-05T13:56:52;25.70;75.40
48454;DHT22;34261;55.678;12.464;2022-07-05T13:59:24;24.60;76.30
48454;DHT22;34261;55.678;12.464;2022-07-05T14:02:45;24.10;78.10
48454;DHT22;34261;55.678;12.464;2022-07-05T14:08:54;22.60;88.40
48454;DHT22;34261;55.678;12.464;2022-07-05T14:12:17;22.50;89.20
48454;DHT22;34261;55.678;12.464;2022-07-05T14:15:23;22.30;87.80
48454;DHT22;34261;55.678;12.464;2022-07-05T14:19:06;22.00;87.60
48454;DHT22;34261;55.678;12.464;2022-07-05T14:21:52;21.60;87.70
48454;DHT22;34261;55.678;12.464;2022-07-05T14:25:19;21.60;88.50
48454;DHT22;34261;55.678;12.464;2022-07-05T15:08:14;20.50;92.50
48454;DHT22;34261;55.678;12.464;2022-07-05T15:10:44;20.70;92.80
48454;DHT22;34261;55.678;12.464;2022-07-05T15:13:13;20.70;92.30
48454;DHT22;34261;55.678;12.464;2022-07-05T15:15:45;20.90;92.30
48454;DHT22;34261;55.678;12.464;2022-07-05T15:18:19;21.50;91.90
48454;DHT22;34261;55.678;12.464;2022-07-05T17:09:37;20.90;91.00
48454;DHT22;34261;55.678;12.464;2022-07-05T17:12:04;20.80;91.10
48454;DHT22;34261;55.678;12.464;2022-07-05T17:14:37;20.80;91.10
48454;DHT22;34261;55.678;12.464;2022-07-05T17:17:11;20.80;91.10
48454;DHT22;34261;55.678;12.464;2022-07-05T17:48:07;19.90;92.00
48454;DHT22;34261;55.678;12.464;2022-07-05T17:50:33;19.70;91.80
48454;DHT22;34261;55.678;12.464;2022-07-05T17:53:00;19.70;92.00
48454;DHT22;34261;55.678;12.464;2022-07-05T17:55:26;19.60;92.30
48454;DHT22;34261;55.678;12.464;2022-07-05T17:57:52;19.50;92.20
48454;DHT22;34261;55.678;12.464;2022-07-05T18:00:18;19.40;92.30
48454;DHT22;34261;55.678;12.464;2022-07-05T18:02:44;19.20;92.90
48454;DHT22;34261;55.678;12.464;2022-07-05T18:05:10;19.10;93.10
48454;DHT22;34261;55.678;12.464;2022-07-05T18:07:36;19.20;93.30
48454;DHT22;34261;55.678;12.464;2022-07-05T18:10:02;19.30;93.20
48454;DHT22;34261;55.678;12.464;2022-07-05T18:12:27;19.30;93.20
48454;DHT22;34261;55.678;12.464;2022-07-05T18:14:53;19.30;93.40
48454;DHT22;34261;55.678;12.464;2022-07-05T18:17:19;19.30;93.30
48454;DHT22;34261;55.678;12.464;2022-07-05T18:19:44;19.10;93.60
48454;DHT22;34261;55.678;12.464;2022-07-05T18:22:10;19.20;93.80
48454;DHT22;34261;55.678;12.464;2022-07-05T18:24:35;19.20;93.80
48454;DHT22;34261;55.678;12.464;2022-07-05T18:27:01;19.30;93.80
48454;DHT22;34261;55.678;12.464;2022-07-05T18:29:26;19.20;93.90
48454;DHT22;34261;55.678;12.464;2022-07-05T18:31:52;19.20;94.40
48454;DHT22;34261;55.678;12.464;2022-07-05T18:34:18;19.00;94.20
48454;DHT22;34261;55.678;12.464;2022-07-05T18:36:44;18.90;94.30
48454;DHT22;34261;55.678;12.464;2022-07-05T18:39:10;18.80;94.00
48454;DHT22;34261;55.678;12.464;2022-07-05T18:41:36;18.80;94.40
48454;DHT22;34261;55.678;12.464;2022-07-05T18:44:02;18.70;94.60
48454;DHT22;34261;55.678;12.464;2022-07-05T18:46:27;18.80;94.60
48454;DHT22;34261;55.678;12.464;2022-07-05T18:48:54;18.70;94.80
48454;DHT22;34261;55.678;12.464;2022-07-05T18:51:20;18.60;94.50
48454;DHT22;34261;55.678;12.464;2022-07-05T18:53:46;18.60;94.80
48454;DHT22;34261;55.678;12.464;2022-07-05T18:56:12;18.60;95.10
48454;DHT22;34261;55.678;12.464;2022-07-05T18:58:37;18.50;95.30
48454;DHT22;34261;55.678;12.464;2022-07-05T19:01:03;18.40;95.50
48454;DHT22;34261;55.678;12.464;2022-07-05T19:03:28;18.30;95.80
48454;DHT22;34261;55.678;12.464;2022-07-05T19:05:54;18.20;96.20
48454;DHT22;34261;55.678;12.464;2022-07-05T19:08:38;18.10;96.50
48454;DHT22;34261;55.678;12.464;2022-07-05T19:11:22;18.10;96.70
48454;DHT22;34261;55.678;12.464;2022-07-05T19:14:06;18.10;96.90
48454;DHT22;34261;55.678;12.464;2022-07-05T19:16:32;18.10;97.20
48454;DHT22;34261;55.678;12.464;2022-07-05T19:18:57;18.00;97.50
48454;DHT22;34261;55.678;12.464;2022-07-05T19:21:23;17.90;97.80
48454;DHT22;34261;55.678;12.464;2022-07-05T19:23:48;17.80;98.20
48454;DHT22;34261;55.678;12.464;2022-07-05T19:26:14;17.80;98.40
48454;DHT22;34261;55.678;12.464;2022-07-05T19:28:40;17.80;98.50
48454;DHT22;34261;55.678;12.464;2022-07-05T19:31:05;17.70;98.80
48454;DHT22;34261;55.678;12.464;2022-07-05T19:33:31;17.70;99.20
48454;DHT22;34261;55.678;12.464;2022-07-05T19:35:57;17.60;99.30
48454;DHT22;34261;55.678;12.464;2022-07-05T19:38:22;17.60;99.70
48454;DHT22;34261;55.678;12.464;2022-07-05T19:40:48;17.60;99.80
48454;DHT22;34261;55.678;12.464;2022-07-05T19:43:15;17.60;99.90
48454;DHT22;34261;55.678;12.464;2022-07-05T19:45:40;17.50;99.90
48454;DHT22;34261;55.678;12.464;2022-07-05T19:48:06;17.50;99.90
48454;DHT22;34261;55.678;12.464;2022-07-05T19:50:32;17.50;99.90
48454;DHT22;34261;55.678;12.464;2022-07-05T19:52:57;17.50;99.90
48454;DHT22;34261;55.678;12.464;2022-07-05T19:55:23;17.40;99.90
48454;DHT22;34261;55.678;12.464;2022-07-05T19:57:50;17.40;99.90
48454;DHT22;34261;55.678;12.464;2022-07-05T20:00:16;17.30;99.90
48454;DHT22;34261;55.678;12.464;2022-07-05T20:02:41;17.30;99.90
48454;DHT22;34261;55.678;12.464;2022-07-05T20:05:07;17.30;99.90
48454;DHT22;34261;55.678;12.464;2022-07-05T20:07:33;17.30;99.90
48454;DHT22;34261;55.678;12.464;2022-07-05T20:09:58;17.20;99.90
48454;DHT22;34261;55.678;12.464;2022-07-05T20:12:24;17.20;99.90
48454;DHT22;34261;55.678;12.464;2022-07-05T20:14:50;17.30;99.90
48454;DHT22;34261;55.678;12.464;2022-07-05T20:17:15;17.30;99.90
48454;DHT22;34261;55.678;12.464;2022-07-05T20:19:42;17.30;99.90
48454;DHT22;34261;55.678;12.464;2022-07-05T20:22:07;17.20;99.90
48454;DHT22;34261;55.678;12.464;2022-07-05T20:24:33;17.20;99.90
48454;DHT22;34261;55.678;12.464;2022-07-05T20:26:59;17.20;99.90
48454;DHT22;34261;55.678;12.464;2022-07-05T20:29:24;17.20;99.90
48454;DHT22;34261;55.678;12.464;2022-07-05T20:31:52;17.10;99.90
48454;DHT22;34261;55.678;12.464;2022-07-05T20:34:18;17.10;99.90
48454;DHT22;34261;55.678;12.464;2022-07-05T20:36:44;17.10;99.90